»·PEaware :: SWA3414 KSAN-KLAS

SWA3414 :: KSAN-KLAS

FLIGHT INFORMATION

Flight Status: Arrived
Operator:
Southwest Airlines
More flights by this operator :: More flights under this callsign
Pilot: Drew Leevy (13237)
Aircraft: BOEING 737-300
(B733)
More flights by this aircraft type
Origin: KSAN San Diego Intl-Lindbergh
United States
Destination: KLAS McCarran Intl
United States
More flights between these airports :: More routes between these airports
Route: +PEBLE6 SXC LAX DAG MISEN KEPEC4
File this flight plan on PilotEdge
Remarks: Sample flight plan
Altitude:
(Current/Filed)
29,000ft
Speed:
(Current/Filed)
550kts
Departed: 16-Jun-17 10:20 PM
Arrived: 16-Jun-17 11:11 PM
Distance/Time
Traveled:
225nm/0:51
Distance/Time
To Go:
Arrived

Flight Plot

Page will automatically refresh every two minutes.

Flight plan parsing failed; only flown route is shown


Map Options




Map Legend


Flown Route
Filed Route
Departure Airport
Arrival Airport
Navaid (VOR, NDB)
Fix

Horizontal Profiles

Position Reports

Time Latitude Longitude Heading Altitude Ground
Speed
16-Jun-17 21:52 32.732350 -117.195939 307 19ft 0kts
16-Jun-17 21:53 32.732350 -117.195939 307 19ft 0kts
16-Jun-17 21:54 32.732350 -117.195939 307 19ft 0kts
16-Jun-17 21:55 32.732350 -117.195939 307 19ft 0kts
16-Jun-17 21:56 32.732350 -117.195939 307 19ft 0kts
16-Jun-17 21:57 32.732350 -117.195939 307 19ft 0kts
16-Jun-17 21:58 32.732350 -117.195939 307 19ft 0kts
16-Jun-17 21:59 32.732350 -117.195939 307 19ft 0kts
16-Jun-17 22:00 32.732350 -117.195939 307 19ft 0kts
16-Jun-17 22:01 32.732350 -117.195939 307 19ft 0kts
16-Jun-17 22:02 32.732350 -117.195939 307 19ft 0kts
16-Jun-17 22:03 32.732350 -117.195939 307 19ft 0kts
16-Jun-17 22:04 32.732350 -117.195939 307 19ft 0kts
16-Jun-17 22:05 32.732350 -117.195939 307 19ft 0kts
16-Jun-17 22:06 32.732350 -117.195939 307 19ft 0kts
16-Jun-17 22:07 32.732350 -117.195939 307 19ft 0kts
16-Jun-17 22:08 32.732350 -117.195939 307 19ft 0kts
16-Jun-17 22:09 32.732350 -117.195939 307 19ft 0kts
16-Jun-17 22:10 32.732350 -117.195939 307 19ft 0kts
16-Jun-17 22:11 32.732350 -117.195939 307 19ft 0kts
16-Jun-17 22:12 32.732236 -117.195764 307 19ft 0kts
16-Jun-17 22:13 32.731917 -117.195272 307 20ft 0kts
16-Jun-17 22:14 32.731917 -117.195272 307 20ft 0kts
16-Jun-17 22:15 32.732318 -117.194800 34 20ft 0kts
16-Jun-17 22:16 32.732640 -117.194565 30 20ft 7kts
16-Jun-17 22:17 32.732611 -117.190073 104 19ft 22kts
16-Jun-17 22:18 32.730625 -117.181905 107 17ft 28kts
16-Jun-17 22:19 32.729475 -117.176841 78 22ft 0kts
16-Jun-17 22:20 32.729475 -117.176841 78 22ft 0kts
16-Jun-17 22:21 32.730474 -117.176936 287 23ft 27kts
16-Jun-17 22:22 32.745756 -117.224697 304 1592ft 219kts
16-Jun-17 22:23 32.785515 -117.292764 300 4664ft 270kts
16-Jun-17 22:24 32.825845 -117.363387 305 8616ft 270kts
16-Jun-17 22:25 32.875243 -117.437625 328 10734ft 330kts
16-Jun-17 22:27 32.956165 -117.496380 328 13757ft 352kts
16-Jun-17 22:28 33.024097 -117.579635 304 16609ft 367kts
16-Jun-17 22:29 33.082619 -117.681968 304 19171ft 385kts
16-Jun-17 22:30 33.144938 -117.779106 307 21525ft 398kts
16-Jun-17 22:31 33.209049 -117.869490 331 23473ft 410kts
16-Jun-17 22:32 33.314562 -117.839773 48 25234ft 438kts
16-Jun-17 22:33 33.380081 -117.742239 25 26865ft 450kts
16-Jun-17 22:34 33.493105 -117.681475 32 28771ft 449kts
16-Jun-17 22:35 33.600050 -117.602533 32 28925ft 461kts
16-Jun-17 22:36 33.708577 -117.522421 32 28999ft 463kts
16-Jun-17 22:37 33.817543 -117.441746 32 28994ft 463kts
16-Jun-17 22:38 33.926426 -117.360884 32 28966ft 464kts
16-Jun-17 22:39 34.032512 -117.281645 33 28969ft 464kts
16-Jun-17 22:40 34.139137 -117.202081 33 28959ft 463kts
16-Jun-17 22:41 34.248587 -117.120143 33 29153ft 463kts
16-Jun-17 22:42 34.356985 -117.038664 32 29297ft 460kts
16-Jun-17 22:43 34.465164 -116.957100 33 29200ft 459kts
16-Jun-17 22:44 34.573701 -116.875009 33 28938ft 463kts
16-Jun-17 22:45 34.683870 -116.791418 33 27925ft 474kts
16-Jun-17 22:46 34.796646 -116.705580 32 26741ft 483kts
16-Jun-17 22:47 34.910394 -116.618719 31 25555ft 483kts
16-Jun-17 22:48 35.011318 -116.518513 45 23712ft 463kts
16-Jun-17 22:49 35.097195 -116.410332 44 22218ft 422kts
16-Jun-17 22:50 35.171262 -116.317786 44 20560ft 401kts
16-Jun-17 22:51 35.247502 -116.222138 44 18861ft 390kts
16-Jun-17 22:52 35.322134 -116.128333 44 17170ft 381kts
16-Jun-17 22:53 35.394911 -116.036616 44 15675ft 364kts
16-Jun-17 22:54 35.461911 -115.951975 44 14803ft 342kts
16-Jun-17 22:55 35.528088 -115.868153 44 13808ft 338kts
16-Jun-17 22:56 35.592933 -115.785806 43 13007ft 332kts
16-Jun-17 22:57 35.661976 -115.697936 44 13048ft 362kts
16-Jun-17 22:58 35.725705 -115.615958 43 13058ft 307kts
16-Jun-17 22:59 35.798974 -115.573058 0 13047ft 304kts
16-Jun-17 23:00 35.883076 -115.568566 0 12984ft 304kts
16-Jun-17 23:01 35.965706 -115.554522 34 12986ft 309kts
16-Jun-17 23:02 36.004773 -115.458520 66 11692ft 319kts
16-Jun-17 23:03 36.030051 -115.357570 92 10929ft 296kts
16-Jun-17 23:04 36.022713 -115.260284 93 9947ft 284kts
16-Jun-17 23:05 36.015726 -115.162423 92 8524ft 289kts
16-Jun-17 23:06 36.009438 -115.069065 91 8169ft 251kts
16-Jun-17 23:07 36.004666 -114.989300 90 7533ft 217kts
16-Jun-17 23:08 36.002534 -114.916152 63 6287ft 208kts
16-Jun-17 23:09 36.046734 -114.929441 311 5727ft 210kts
16-Jun-17 23:10 36.077644 -114.984528 273 4274ft 188kts
16-Jun-17 23:11 36.076469 -115.042583 267 3409ft 161kts
16-Jun-17 23:12 36.076394 -115.095864 269 2577ft 148kts
16-Jun-17 23:13 36.076399 -115.142990 270 2090ft 94kts
16-Jun-17 23:14 36.079988 -115.151143 358 2111ft 26kts
16-Jun-17 23:15 36.082667 -115.148779 60 2097ft 0kts

Navigation Log

Ident Type
Flight plan parsing failed, navigation log unavailable